EDT,Max TemperatureF,Mean TemperatureF,Min TemperatureF,Max Dew PointF,MeanDew PointF,Min DewpointF,Max Humidity, Mean Humidity, Min Humidity, Max Sea Level PressureIn, Mean Sea Level PressureIn, Min Sea Level PressureIn, Max VisibilityMiles, Mean VisibilityMiles, Min VisibilityMiles, Max Wind SpeedMPH, Mean Wind SpeedMPH, Max Gust SpeedMPH,PrecipitationIn, CloudCover, Events, WindDirDegrees
2014-6-1,76,60,43,52,46,36,100,62,25,30.36,30.27,30.17,10,10,5,13,2,,0.00,0,,127
2014-6-2,83,72,60,57,49,42,67,46,28,30.17,30.07,29.95,10,10,10,12,6,18,0.00,0,,112
2014-6-3,87,74,61,70,63,57,100,75,43,29.97,29.88,29.77,10,9,2,18,5,24,0.44,5,Rain,112
2014-6-4,77,66,55,66,54,44,100,65,35,29.85,29.78,29.72,10,10,7,12,5,17,0.04,4,,139
2014-6-5,76,62,49,58,51,46,100,68,36,29.78,29.71,29.65,10,10,10,15,3,28,0.00,4,Rain,280
2014-6-6,70,62,55,59,55,52,100,82,53,29.93,29.85,29.77,10,10,2,14,4,21,0.03,6,Rain,298
2014-6-7,80,66,51,58,54,51,100,69,37,29.99,29.95,29.90,10,10,10,9,2,16,0.00,1,,293
2014-6-8,83,68,52,61,54,43,100,65,24,29.97,29.92,29.85,10,10,10,7,1,,0.00,0,,153
2014-6-9,81,72,62,67,60,55,89,68,48,29.98,29.93,29.87,10,10,7,9,2,,0.00,3,,161
2014-6-10,74,67,61,64,62,60,100,85,65,30.07,29.98,29.93,10,10,10,15,4,21,0.00,5,Rain,289
2014-6-11,72,64,57,62,54,45,100,77,40,30.17,30.12,30.08,10,10,5,15,5,21,0.22,5,Rain,118
2014-6-12,65,62,58,64,57,51,100,88,71,30.10,30.03,29.95,10,10,4,12,6,21,0.26,8,Rain,105
2014-6-13,68,64,61,64,61,57,98,87,73,29.95,29.84,29.76,10,10,3,16,9,30,0.33,7,Rain,91
2014-6-14,71,62,55,63,57,48,100,83,47,30.00,29.88,29.76,10,10,4,9,3,16,0.31,8,Rain,243
2014-6-15,71,63,55,56,53,46,100,72,45,30.13,30.08,29.99,10,10,7,14,6,20,0.00,5,Rain,302
2014-6-16,78,63,48,59,52,39,100,67,24,30.17,30.09,30.00,10,10,10,6,1,,0.00,1,,128
2014-6-17,86,74,62,65,59,55,93,60,38,30.06,29.94,29.69,10,10,7,14,3,23,0.03,3,Rain,121
2014-6-18,76,70,64,69,65,59,100,88,57,29.98,29.85,29.69,10,10,4,14,7,18,0.11,6,Rain,292
2014-6-19,73,64,55,64,53,40,100,67,31,30.04,30.01,29.97,10,10,10,15,4,21,0.00,2,,308
2014-6-20,66,56,47,52,44,38,100,65,37,30.03,30.00,29.97,10,10,10,17,4,26,0.00,1,,305
2014-6-21,70,58,45,52,46,43,100,66,39,30.01,29.96,29.92,10,10,10,14,2,18,0.00,3,,293
2014-6-22,75,62,48,56,50,47,99,66,40,30.03,29.98,29.95,10,10,10,10,2,16,0.00,1,,288
2014-6-23,82,66,51,57,52,45,100,60,28,30.12,30.07,30.02,10,10,10,12,2,20,0.00,1,,120
2014-6-24,75,71,67,64,60,55,84,67,54,30.07,30.01,29.91,10,10,10,14,8,23,0.00,5,Rain,148
2014-6-25,72,69,66,71,68,64,100,97,77,29.92,29.89,29.84,10,7,0,7,4,,1.32,8,Rain,152
2014-6-26,77,68,59,68,64,59,100,91,58,30.03,29.91,29.83,10,7,2,13,5,18,0.14,6,Rain,353
2014-6-27,80,66,53,63,57,48,100,74,33,30.19,30.13,30.03,10,9,0,9,2,,0.00,1,Fog,348
2014-6-28,85,69,53,66,56,45,100,69,25,30.29,30.24,30.20,10,10,10,7,1,,0.00,0,,198
2014-6-29,85,70,56,65,59,54,97,65,37,30.24,30.15,30.04,10,10,10,9,3,,0.00,0,,178
2014-6-30,84,78,71,69,65,61,74,67,56,30.05,29.97,29.88,10,10,10,13,6,18,0.00,4,,172